Nearby METAR Reports

 

KBMG - Bloomington, Indiana, USA
Distance from station: SSE 11mi, 18km
Updated: Mon, 25-Oct-2021 7:53pm EDT
Overcast
Overcast
 Wind from NW
Wind: NW 9 mph , 15 km/h
Temperature: 50°F , 10°C
Wind Chill: 46°F , 8°C
Dew Point: 46°F , 8°C
Humidity: 88%
Barometer: 29.90 inHg , 1012.5 hPa
Clouds: Overcast
Visibility: 10 miles , 16 km
Cloud details: Overcast 2300 ft
2021/10/25 23:53 KBMG 252353Z 32008KT 10SM OVC023 10/08 A2990 RMK AO2 RAE18 SLP124 P0000 60004 T01000078 10117 20100 53027
KGPC - Greencastle, Indiana, USA
Distance from station: NNW 24mi, 39km
Updated: Mon, 25-Oct-2021 7:55pm EDT
Overcast
Overcast
 Wind from NNW
Wind: NNW 13 mph , 20 km/h
Temperature: 48°F , 9°C
Wind Chill: 43°F , 6°C
Dew Point: 45°F , 7°C
Humidity: 87%
Barometer: 29.93 inHg , 1013.5 hPa
Clouds: Overcast
Visibility: 10 miles , 16 km
Cloud details: Overcast 1500 ft
2021/10/25 23:55 KGPC 252355Z AUTO 33011KT 10SM OVC015 09/07 A2993 RMK AO2 T00940073 10118 20092 401990092
 
KHUF - Terre Haute, Indiana, USA
Distance from station: WNW 34mi, 54km
Updated: Mon, 25-Oct-2021 7:53pm EDT
Overcast
Overcast
 Wind from N
Wind: N 12 mph , 19 km/h, Gust: 20 mph , 31 km/h
Temperature: 52°F , 11°C
Dew Point: 46°F , 8°C
Humidity: 82%
Barometer: 29.95 inHg , 1014.2 hPa
Clouds: Overcast
Visibility: 10 miles , 16 km
Cloud details: Mostly cloudy 2300 ft
Mostly cloudy 2700 ft
Overcast 3300 ft
2021/10/25 23:53 KHUF 252353Z 36010G17KT 10SM BKN023 BKN027 OVC033 11/08 A2995 RMK AO2 RAB25E34 SLP141 P0000 60001 T01110078 10122 20106 51041
KIND - Indianapolis, Indiana, USA
Distance from station: NE 36mi, 58km
Updated: Mon, 25-Oct-2021 7:54pm EDT
Overcast
Overcast
 Wind from NNW
Wind: NNW 18 mph , 30 km/h, Gust: 24 mph , 39 km/h
Temperature: 48°F , 9°C
Wind Chill: 41°F , 5°C
Dew Point: 45°F , 7°C
Humidity: 87%
Barometer: 29.89 inHg , 1012.2 hPa
Clouds: Overcast
Visibility: 10 miles , 16 km
Cloud details: Overcast 1600 ft
2021/10/25 23:54 KIND 252354Z 34016G21KT 10SM OVC016 09/07 A2989 RMK AO2 PK WND 36028/2304 PRESRR SLP122 60003 T00940072 10122 20094 51027
 
KHFY - Indianapolis, Indiana, USA
Distance from station: NE 40mi, 65km
Updated: Thu, 05-Aug-2021 10:15am EDT
NOT Current
Clear
Clear
 Wind from calm
Wind: Calm
Temperature: 75°F , 24°C
Dew Point: 59°F , 15°C
Humidity: 57%
Barometer: 30.17 inHg , 1021.7 hPa
Clouds: Clear
Visibility: 10 miles , 16 km
2021/08/05 14:15 KHFY 051415Z AUTO 00000KT 10SM CLR 24/15 A3017 RMK AO2 T02350146
KBAK - Columbus/Balkala, Indiana, USA
Distance from station: E 43mi, 69km
Updated: Mon, 25-Oct-2021 7:45pm EDT
Overcast
Overcast
 Wind from NW
Wind: NW 21 mph , 33 km/h
Temperature: 50°F , 10°C
Wind Chill: 43°F , 6°C
Dew Point: 48°F , 9°C
Humidity: 94%
Barometer: 29.86 inHg , 1011.2 hPa
Clouds: Overcast
Visibility: 10 miles , 16 km
Cloud details: Overcast 900 ft
2021/10/25 23:45 KBAK 252345Z 32018KT 10SM OVC009 10/09 A2986 RMK RA E05
 
KEYE - Indianapolis, Indiana, USA
Distance from station: NNE 43mi, 69km
Updated: Mon, 25-Oct-2021 7:53pm EDT
Overcast
Overcast
 Wind from N
Wind: N 13 mph , 20 km/h, Gust: 24 mph , 39 km/h
Temperature: 50°F , 10°C
Wind Chill: 45°F , 7°C
Dew Point: 45°F , 7°C
Humidity: 82%
Barometer: 29.89 inHg , 1012.2 hPa
Clouds: Overcast
Visibility: 10 miles , 16 km
Cloud details: Overcast 1500 ft
2021/10/25 23:53 KEYE 252353Z AUTO 35011G21KT 10SM OVC015 10/07 A2989 RMK AO2 PK WND 35026/2258 RAE42 PRESRR SLP120 P0000 60002 T01000072 10133 20100 53045
KDCY - Daviess County, Indiana, USA
Distance from station: SSW 47mi, 76km
Updated: Mon, 25-Oct-2021 7:55pm EDT
Overcast
Overcast
 Wind from NNW
Wind: NNW 12 mph , 19 km/h, Gust: 20 mph , 31 km/h
Temperature: 52°F , 11°C
Dew Point: 45°F , 7°C
Humidity: 77%
Barometer: 29.95 inHg , 1014.2 hPa
Clouds: Overcast
Visibility: 10 miles , 16 km
Cloud details: Overcast 2600 ft
2021/10/25 23:55 KDCY 252355Z AUTO 33010G17KT 10SM OVC026 11/07 A2995 RMK AO2 60001 T01100074 10123 20107
 
KCFJ - Crawfordsville, Indiana, USA
Distance from station: NNW 49mi, 78km
Updated: Mon, 25-Oct-2021 7:55pm EDT
Overcast
Overcast
 Wind from NNW
Wind: NNW 17 mph , 28 km/h, Gust: 22 mph , 35 km/h
Barometer: 29.94 inHg , 1013.9 hPa
Clouds: Overcast
Visibility: 10 miles , 16 km
Cloud details: Overcast 1800 ft
2021/10/25 23:55 KCFJ 252355Z AUTO 33015G19KT 10SM OVC018 A2994 RMK AO2